createdAt,value
2023-04-18T00:01:09.898Z,101044.97
2023-04-18T00:03:38.410Z,101063.16
2023-04-18T00:06:07.040Z,101046.16
2023-04-18T00:08:35.576Z,101049.03
2023-04-18T00:11:02.995Z,101040.97
2023-04-18T00:13:30.128Z,101056.97
2023-04-18T00:15:57.618Z,101045.03
2023-04-18T00:18:26.846Z,101032.19
2023-04-18T00:20:54.680Z,101017.81
2023-04-18T00:23:22.521Z,101041.38
2023-04-18T00:25:50.406Z,101023.94
2023-04-18T00:28:17.577Z,101007.47
2023-04-18T00:30:45.778Z,101024.41
2023-04-18T00:33:13.012Z,101001.09
2023-04-18T00:35:40.088Z,101013.09
2023-04-18T00:38:08.459Z,101002.25
2023-04-18T00:40:36.375Z,101011.13
2023-04-18T00:43:03.707Z,101006.91
2023-04-18T00:45:30.935Z,100994.03
2023-04-18T00:47:58.272Z,100999.00
2023-04-18T00:50:25.620Z,101006.53
2023-04-18T00:52:54.177Z,100999.25
2023-04-18T00:55:22.276Z,100987.19
2023-04-18T00:57:49.982Z,100969.03
2023-04-18T01:00:17.406Z,100975.34
2023-04-18T01:02:44.646Z,100996.56
2023-04-18T01:05:12.092Z,100986.13
2023-04-18T01:07:42.441Z,100985.53
2023-04-18T01:10:11.012Z,100977.69
2023-04-18T01:12:38.265Z,100988.13
2023-04-18T01:15:06.316Z,100988.47
2023-04-18T01:17:35.661Z,100973.81
2023-04-18T01:20:06.544Z,100981.81
2023-04-18T01:22:34.101Z,100979.28
2023-04-18T01:25:07.243Z,100997.22
2023-04-18T01:27:34.523Z,100983.31
2023-04-18T01:30:01.745Z,100956.25
2023-04-18T01:32:33.190Z,100995.50
2023-04-18T01:35:00.436Z,100992.97
2023-04-18T01:37:27.517Z,100996.63
2023-04-18T01:39:55.017Z,101012.31
2023-04-18T01:42:22.134Z,101000.22
2023-04-18T01:44:49.368Z,101005.22
2023-04-18T01:47:16.602Z,100985.25
2023-04-18T01:49:48.179Z,100982.47
2023-04-18T01:52:16.185Z,100985.88
2023-04-18T01:54:43.519Z,100999.81
2023-04-18T01:57:10.810Z,100987.78
2023-04-18T01:59:38.484Z,100981.19
2023-04-18T02:02:06.058Z,100981.38
2023-04-18T02:04:33.410Z,100984.72
2023-04-18T02:07:00.977Z,100973.59
2023-04-18T02:09:28.382Z,100979.56
2023-04-18T02:11:59.326Z,100967.63
2023-04-18T02:14:28.160Z,100968.53
2023-04-18T02:16:55.790Z,100952.44
2023-04-18T02:19:24.640Z,100962.75
2023-04-18T02:21:52.181Z,100973.66
2023-04-18T02:24:19.511Z,100956.63
2023-04-18T02:26:47.544Z,100946.94
2023-04-18T02:29:14.678Z,100963.06
2023-04-18T02:31:42.294Z,100962.19
2023-04-18T02:34:09.472Z,100936.59
2023-04-18T02:36:36.632Z,100923.50
2023-04-18T02:39:03.980Z,100938.25
2023-04-18T02:41:31.332Z,100925.25
2023-04-18T02:43:59.210Z,100939.13
2023-04-18T02:46:26.529Z,100930.53
2023-04-18T02:48:53.687Z,100953.59
2023-04-18T02:51:24.377Z,100957.50
2023-04-18T02:53:55.024Z,100950.28
2023-04-18T02:56:23.012Z,100949.16
2023-04-18T02:59:22.792Z,100960.28
2023-04-18T03:02:12.757Z,100947.16
2023-04-18T03:04:48.129Z,100951.28
2023-04-18T03:07:15.789Z,100953.22
2023-04-18T03:09:42.929Z,100947.44
2023-04-18T03:12:18.467Z,100961.84
2023-04-18T03:14:46.539Z,100957.34
2023-04-18T03:17:14.768Z,100941.63
2023-04-18T03:19:47.626Z,100960.44
2023-04-18T03:22:16.693Z,100955.59
2023-04-18T03:24:57.509Z,100945.25
2023-04-18T03:27:39.488Z,100942.78
2023-04-18T03:30:08.282Z,100948.91
2023-04-18T03:32:36.581Z,100917.03
2023-04-18T03:35:04.259Z,100932.50
2023-04-18T03:37:32.140Z,100937.63
2023-04-18T03:40:00.311Z,100933.72
2023-04-18T03:42:30.980Z,100937.28
2023-04-18T03:44:58.795Z,100945.25
2023-04-18T03:47:26.162Z,100932.34
2023-04-18T03:49:57.018Z,100953.88
2023-04-18T03:52:27.492Z,100927.25
2023-04-18T03:54:55.848Z,100955.84
2023-04-18T03:57:26.468Z,100943.56
2023-04-18T03:59:54.212Z,100937.75
2023-04-18T04:02:22.180Z,100942.94
2023-04-18T04:04:50.980Z,100949.72
2023-04-18T04:07:19.343Z,100946.25
2023-04-18T04:09:47.495Z,100961.00
2023-04-18T04:12:15.996Z,100952.06
2023-04-18T04:14:43.762Z,100967.81
2023-04-18T04:17:11.275Z,100969.22
2023-04-18T04:19:39.493Z,100972.16
2023-04-18T04:22:13.163Z,100963.63
2023-04-18T04:24:42.210Z,100970.22
2023-04-18T04:27:10.614Z,100970.28
2023-04-18T04:29:39.342Z,100974.97
2023-04-18T04:32:08.271Z,100983.75
2023-04-18T04:34:41.626Z,100978.44
2023-04-18T04:37:14.129Z,100966.69
2023-04-18T04:39:53.684Z,100960.63
2023-04-18T04:42:31.412Z,100975.81
2023-04-18T04:45:09.610Z,100973.00
2023-04-18T04:47:37.125Z,100971.16
2023-04-18T04:50:06.323Z,100968.09
2023-04-18T04:52:33.886Z,100974.78
2023-04-18T04:55:02.758Z,100976.59
2023-04-18T04:57:32.073Z,100991.69
2023-04-18T04:59:59.336Z,100967.88
2023-04-18T05:02:30.251Z,100979.28
2023-04-18T05:04:58.424Z,100969.16
2023-04-18T05:07:26.001Z,100977.69
2023-04-18T05:09:53.626Z,100958.47
2023-04-18T05:12:20.736Z,100962.44
2023-04-18T05:14:47.840Z,100975.88
2023-04-18T05:17:14.884Z,100965.00
2023-04-18T05:19:44.272Z,100968.72
2023-04-18T05:22:11.600Z,100954.47
2023-04-18T05:24:38.800Z,100954.78
2023-04-18T05:27:07.220Z,100968.94
2023-04-18T05:29:34.412Z,100974.56
2023-04-18T05:32:02.226Z,100970.47
2023-04-18T05:34:29.351Z,100970.84
2023-04-18T05:36:56.941Z,100965.16
2023-04-18T05:39:24.373Z,100962.47
2023-04-18T05:41:51.415Z,100971.31
2023-04-18T05:44:18.923Z,100968.44
2023-04-18T05:46:46.685Z,100953.00
2023-04-18T05:49:14.105Z,100956.03
2023-04-18T05:51:41.181Z,100974.91
2023-04-18T05:54:08.352Z,100958.50
2023-04-18T05:56:35.800Z,100948.16
2023-04-18T05:59:02.916Z,100962.50
2023-04-18T06:01:30.083Z,100957.38
2023-04-18T06:03:57.564Z,100946.22
2023-04-18T06:06:24.912Z,100947.97
2023-04-18T06:08:52.157Z,100964.56
2023-04-18T06:11:21.352Z,100955.03
2023-04-18T06:13:48.564Z,100948.41
2023-04-18T06:16:16.238Z,100971.41
2023-04-18T06:18:43.367Z,100960.41
2023-04-18T06:21:10.576Z,100968.22
2023-04-18T06:23:38.777Z,100968.13
2023-04-18T06:26:07.419Z,100965.94
2023-04-18T06:28:34.485Z,100951.31
2023-04-18T06:31:01.812Z,100955.56
2023-04-18T06:33:29.204Z,100954.50
2023-04-18T06:35:56.391Z,100961.16
2023-04-18T06:38:23.600Z,100972.78
2023-04-18T06:40:50.754Z,100960.09
2023-04-18T06:43:17.953Z,100973.81
2023-04-18T06:45:46.048Z,100950.22
2023-04-18T06:48:13.456Z,100958.53
2023-04-18T06:50:40.984Z,100948.25
2023-04-18T06:53:08.025Z,100942.84
2023-04-18T06:55:36.136Z,100939.22
2023-04-18T06:58:03.352Z,100945.66
2023-04-18T07:00:30.998Z,100925.13
2023-04-18T07:02:58.163Z,100947.22
2023-04-18T07:05:25.397Z,100926.03
2023-04-18T07:07:52.495Z,100926.22
2023-04-18T07:10:19.753Z,100913.38
2023-04-18T07:12:47.679Z,100895.44
2023-04-18T07:15:15.021Z,100926.47
2023-04-18T07:17:42.321Z,100901.34
2023-04-18T07:20:12.353Z,100922.88
2023-04-18T07:22:41.842Z,100911.66
2023-04-18T07:25:09.486Z,100910.91
2023-04-18T07:27:37.202Z,100923.47
2023-04-18T07:30:05.043Z,100929.31
2023-04-18T07:32:35.005Z,100920.59
2023-04-18T07:35:03.503Z,100913.41
2023-04-18T07:37:32.084Z,100929.59
2023-04-18T07:39:59.457Z,100918.16
2023-04-18T07:42:27.033Z,100947.41
2023-04-18T07:45:00.840Z,100922.72
2023-04-18T07:47:30.373Z,100895.38
2023-04-18T07:49:58.479Z,100883.50
2023-04-18T07:52:25.998Z,100889.41
2023-04-18T07:54:53.441Z,100887.66
2023-04-18T07:57:21.119Z,100886.66
2023-04-18T07:59:48.365Z,100860.78
2023-04-18T08:02:16.567Z,100850.53
2023-04-18T08:04:44.045Z,100855.31
2023-04-18T08:07:11.302Z,100867.13
2023-04-18T08:09:38.460Z,100868.50
2023-04-18T08:12:05.864Z,100876.09
2023-04-18T08:14:33.021Z,100885.75
2023-04-18T08:17:00.380Z,100884.50
2023-04-18T08:19:27.690Z,100899.28
2023-04-18T08:21:54.789Z,100879.97
2023-04-18T08:24:22.218Z,100893.31
2023-04-18T08:26:49.563Z,100890.50
2023-04-18T08:29:17.013Z,100893.19
2023-04-18T08:31:44.175Z,100881.44
2023-04-18T08:34:11.433Z,100886.91
2023-04-18T08:36:39.548Z,100874.50
2023-04-18T08:39:08.003Z,100898.38
2023-04-18T08:41:37.950Z,100889.28
2023-04-18T08:44:06.655Z,100872.38
2023-04-18T08:46:37.472Z,100883.16
2023-04-18T08:49:06.300Z,100888.31
2023-04-18T08:51:34.151Z,100884.66
2023-04-18T08:54:04.467Z,100899.41
2023-04-18T08:56:32.127Z,100889.97
2023-04-18T08:59:00.514Z,100884.84
2023-04-18T09:01:52.303Z,100887.97
2023-04-18T09:04:39.148Z,100886.16
2023-04-18T09:07:12.087Z,100881.72
2023-04-18T09:09:50.133Z,100889.66
2023-04-18T09:12:22.867Z,100867.78
2023-04-18T09:14:52.402Z,100891.97
2023-04-18T09:17:34.893Z,100881.03
2023-04-18T09:20:05.549Z,100880.38
2023-04-18T09:22:50.751Z,100883.84
2023-04-18T09:25:29.589Z,100892.94
2023-04-18T09:28:02.088Z,100893.63
2023-04-18T09:30:39.440Z,100895.59
2023-04-18T09:33:10.161Z,100895.41
2023-04-18T09:35:38.499Z,100895.28
2023-04-18T09:38:07.629Z,100884.16
2023-04-18T09:40:35.054Z,100888.97
2023-04-18T09:43:18.883Z,100888.59
2023-04-18T09:45:48.845Z,100891.72
2023-04-18T09:48:16.293Z,100891.72
2023-04-18T09:50:46.456Z,100893.06
2023-04-18T09:53:20.669Z,100896.53
2023-04-18T09:55:57.686Z,100887.56
2023-04-18T09:58:29.092Z,100886.25
2023-04-18T10:00:57.094Z,100906.31
2023-04-18T10:03:32.881Z,100884.44
2023-04-18T10:06:00.559Z,100882.88
2023-04-18T10:08:27.716Z,100903.94
2023-04-18T10:10:56.695Z,100900.72
2023-04-18T10:13:24.858Z,100872.09
2023-04-18T10:15:52.696Z,100894.88
2023-04-18T10:18:23.949Z,100903.31
2023-04-18T10:20:51.859Z,100888.22
2023-04-18T10:23:31.494Z,100905.06
2023-04-18T10:25:59.389Z,100892.44
2023-04-18T10:28:28.181Z,100886.81
2023-04-18T10:31:03.673Z,100900.72
2023-04-18T10:33:41.995Z,100920.72
2023-04-18T10:36:09.692Z,100920.78
2023-04-18T10:38:45.349Z,100928.25
2023-04-18T10:41:23.546Z,100893.28
2023-04-18T10:44:09.772Z,100901.59
2023-04-18T10:46:38.962Z,100898.16
2023-04-18T10:49:23.259Z,100888.00
2023-04-18T10:51:53.980Z,100880.06
2023-04-18T10:54:32.987Z,100872.34
2023-04-18T10:57:03.158Z,100867.91
2023-04-18T10:59:32.521Z,100870.31
2023-04-18T11:02:33.396Z,100865.56
2023-04-18T11:05:04.815Z,100837.09
2023-04-18T11:07:39.730Z,100855.00
2023-04-18T11:10:10.306Z,100854.75
2023-04-18T11:12:40.490Z,100826.25
2023-04-18T11:15:13.287Z,100854.88
2023-04-18T11:17:40.603Z,100800.22
2023-04-18T11:20:15.289Z,100831.69
2023-04-18T11:22:47.121Z,100848.63
2023-04-18T11:25:16.547Z,100834.28
2023-04-18T11:27:45.321Z,100819.81
2023-04-18T11:30:14.237Z,100805.09
2023-04-18T11:32:41.656Z,100830.09
2023-04-18T11:35:10.710Z,100831.06
2023-04-18T11:37:39.589Z,100834.09
2023-04-18T11:40:09.917Z,100829.03
2023-04-18T11:42:39.530Z,100826.41
2023-04-18T11:45:14.439Z,100821.13
2023-04-18T11:47:43.369Z,100803.91
2023-04-18T11:50:12.226Z,100803.56
2023-04-18T11:52:42.857Z,100800.13
2023-04-18T11:55:28.922Z,100809.97
2023-04-18T11:57:58.011Z,100786.72
2023-04-18T12:00:35.464Z,100790.81
2023-04-18T12:03:08.959Z,100757.59
2023-04-18T12:05:38.737Z,100784.97
2023-04-18T12:08:12.361Z,100766.56
2023-04-18T12:10:47.585Z,100786.81
2023-04-18T12:13:15.290Z,100779.59
2023-04-18T12:15:44.713Z,100799.97
2023-04-18T12:18:14.206Z,100791.63
2023-04-18T12:20:50.483Z,100800.63
2023-04-18T12:23:40.462Z,100798.63
2023-04-18T12:26:18.472Z,100792.16
2023-04-18T12:28:46.623Z,100780.97
2023-04-18T12:31:13.742Z,100771.56
2023-04-18T12:33:40.919Z,100769.47
2023-04-18T12:36:11.280Z,100760.97
2023-04-18T12:38:38.574Z,100754.75
2023-04-18T12:41:05.947Z,100763.72
2023-04-18T12:43:34.098Z,100761.38
2023-04-18T12:46:01.426Z,100772.34
2023-04-18T12:48:28.980Z,100763.31
2023-04-18T12:50:56.616Z,100760.78
2023-04-18T12:53:23.663Z,100759.19
2023-04-18T12:55:51.075Z,100754.78
2023-04-18T12:58:18.901Z,100740.78
2023-04-18T13:00:46.495Z,100773.06
2023-04-18T13:03:13.880Z,100756.34
2023-04-18T13:05:41.516Z,100770.97
2023-04-18T13:08:17.101Z,100761.66
2023-04-18T13:10:48.813Z,100768.34
2023-04-18T13:13:16.409Z,100768.59
2023-04-18T13:15:43.566Z,100757.16
2023-04-18T13:18:11.043Z,100754.09
2023-04-18T13:20:38.882Z,100744.91
2023-04-18T13:23:06.262Z,100752.56
2023-04-18T13:25:33.453Z,100721.44
2023-04-18T13:28:01.251Z,100756.56
2023-04-18T13:30:29.205Z,100744.44
2023-04-18T13:32:56.921Z,100751.50
2023-04-18T13:35:24.798Z,100736.31
2023-04-18T13:37:52.144Z,100733.94
2023-04-18T13:40:19.521Z,100743.50
2023-04-18T13:42:46.700Z,100719.78
2023-04-18T13:45:13.778Z,100732.63
2023-04-18T13:47:41.024Z,100721.63
2023-04-18T13:50:09.038Z,100735.53
2023-04-18T13:52:36.556Z,100739.31
2023-04-18T13:55:04.146Z,100731.88
2023-04-18T13:57:33.695Z,100715.88
2023-04-18T14:00:01.359Z,100708.81
2023-04-18T14:02:40.801Z,100716.91
2023-04-18T14:05:09.148Z,100715.03
2023-04-18T14:07:38.441Z,100715.03
2023-04-18T14:10:06.923Z,100713.03
2023-04-18T14:12:34.687Z,100716.47
2023-04-18T14:15:01.961Z,100716.25
2023-04-18T14:17:32.588Z,100710.81
2023-04-18T14:20:00.479Z,100720.22
2023-04-18T14:22:27.548Z,100720.34
2023-04-18T14:24:56.240Z,100718.44
2023-04-18T14:27:25.742Z,100720.78
2023-04-18T14:29:52.926Z,100705.25
2023-04-18T14:32:20.461Z,100701.13
2023-04-18T14:34:47.606Z,100682.75
2023-04-18T14:37:16.399Z,100688.06
2023-04-18T14:39:44.814Z,100658.47
2023-04-18T14:42:11.878Z,100675.91
2023-04-18T14:44:39.359Z,100692.53
2023-04-18T14:47:06.925Z,100685.19
2023-04-18T14:49:35.709Z,100689.19
2023-04-18T14:52:04.007Z,100684.34
2023-04-18T14:54:32.766Z,100691.56
2023-04-18T14:57:00.041Z,100676.22
2023-04-18T14:59:28.870Z,100676.84
2023-04-18T15:01:56.384Z,100654.78
2023-04-18T15:04:23.969Z,100680.00
2023-04-18T15:06:51.572Z,100691.44
2023-04-18T15:09:18.754Z,100680.72
2023-04-18T15:11:46.014Z,100688.88
2023-04-18T15:14:13.355Z,100689.34
2023-04-18T15:16:40.982Z,100684.88
2023-04-18T15:19:08.224Z,100685.00
2023-04-18T15:21:35.485Z,100673.56
2023-04-18T15:24:02.817Z,100661.19
2023-04-18T15:26:32.313Z,100666.72
2023-04-18T15:29:03.311Z,100684.34
2023-04-18T15:31:31.089Z,100664.56
2023-04-18T15:33:58.805Z,100660.66
2023-04-18T15:36:28.193Z,100681.53
2023-04-18T15:38:55.580Z,100676.34
2023-04-18T15:41:25.761Z,100659.31
2023-04-18T15:43:53.420Z,100670.28
2023-04-18T15:46:20.535Z,100690.19
2023-04-18T15:48:47.850Z,100668.94
2023-04-18T15:51:15.315Z,100670.81
2023-04-18T15:53:42.432Z,100657.81
2023-04-18T15:56:10.641Z,100668.78
2023-04-18T15:58:38.414Z,100676.91
2023-04-18T16:01:05.958Z,100684.25
2023-04-18T16:03:33.700Z,100684.94
2023-04-18T16:06:01.547Z,100686.94
2023-04-18T16:08:30.312Z,100695.66
2023-04-18T16:10:58.647Z,100697.19
2023-04-18T16:13:25.857Z,100686.34
2023-04-18T16:15:52.942Z,100684.25
2023-04-18T16:18:20.765Z,100669.28
2023-04-18T16:20:47.974Z,100659.97
2023-04-18T16:23:15.344Z,100667.28
2023-04-18T16:25:42.444Z,100682.34
2023-04-18T16:28:09.694Z,100654.06
2023-04-18T16:30:37.607Z,100683.53
2023-04-18T16:33:04.804Z,100681.13
2023-04-18T16:35:31.939Z,100681.59
2023-04-18T16:37:59.093Z,100673.78
2023-04-18T16:40:30.434Z,100647.09
2023-04-18T16:42:58.253Z,100676.28
2023-04-18T16:45:25.728Z,100677.69
2023-04-18T16:47:53.107Z,100677.91
2023-04-18T16:50:21.568Z,100686.66
2023-04-18T16:52:51.796Z,100665.25
2023-04-18T16:55:20.049Z,100683.53
2023-04-18T16:57:48.198Z,100692.22
2023-04-18T17:00:15.575Z,100685.06
2023-04-18T17:02:45.457Z,100684.38
2023-04-18T17:05:12.859Z,100671.78
2023-04-18T17:07:40.238Z,100685.25
2023-04-18T17:10:09.883Z,100682.16
2023-04-18T17:12:37.759Z,100665.72
2023-04-18T17:15:05.346Z,100688.44
2023-04-18T17:17:32.965Z,100672.50
2023-04-18T17:20:01.638Z,100681.53
2023-04-18T17:22:30.604Z,100693.75
2023-04-18T17:24:57.613Z,100677.50
2023-04-18T17:27:24.774Z,100694.44
2023-04-18T17:29:52.032Z,100693.41
2023-04-18T17:32:23.428Z,100695.53
2023-04-18T17:34:50.778Z,100702.75
2023-04-18T17:37:19.793Z,100685.91
2023-04-18T17:39:46.977Z,100699.25
2023-04-18T17:42:14.173Z,100690.50
2023-04-18T17:44:41.839Z,100684.94
2023-04-18T17:47:09.338Z,100687.28
2023-04-18T17:49:36.675Z,100678.47
2023-04-18T17:52:04.623Z,100706.94
2023-04-18T17:54:33.005Z,100687.56
2023-04-18T17:57:00.198Z,100680.38
2023-04-18T17:59:27.829Z,100675.16
2023-04-18T18:01:55.000Z,100663.44
2023-04-18T18:04:24.874Z,100683.28
2023-04-18T18:06:57.447Z,100676.13
2023-04-18T18:09:24.929Z,100669.81
2023-04-18T18:11:54.694Z,100659.44
2023-04-18T18:14:23.495Z,100666.06
2023-04-18T18:16:50.874Z,100669.72
2023-04-18T18:19:18.262Z,100658.97
2023-04-18T18:21:45.451Z,100656.69
2023-04-18T18:24:13.209Z,100659.84
2023-04-18T18:26:40.313Z,100637.13
2023-04-18T18:29:13.369Z,100659.59
2023-04-18T18:31:41.657Z,100663.44
2023-04-18T18:34:09.011Z,100652.50
2023-04-18T18:36:36.267Z,100647.09
2023-04-18T18:39:04.234Z,100647.66
2023-04-18T18:41:31.481Z,100640.06
2023-04-18T18:43:58.729Z,100626.97
2023-04-18T18:46:27.318Z,100620.66
2023-04-18T18:48:54.838Z,100615.66
2023-04-18T18:51:23.854Z,100644.69
2023-04-18T18:53:51.102Z,100632.94
2023-04-18T18:56:18.303Z,100608.47
2023-04-18T18:58:45.645Z,100614.59
2023-04-18T19:01:12.904Z,100615.59
2023-04-18T19:03:40.728Z,100626.00
2023-04-18T19:06:08.863Z,100627.06
2023-04-18T19:08:36.148Z,100605.06
2023-04-18T19:11:03.883Z,100605.72
2023-04-18T19:13:31.023Z,100600.13
2023-04-18T19:15:58.534Z,100611.72
2023-04-18T19:18:25.928Z,100593.84
2023-04-18T19:20:53.123Z,100598.31
2023-04-18T19:23:20.399Z,100584.41
2023-04-18T19:25:47.511Z,100584.41
2023-04-18T19:28:14.834Z,100596.31
2023-04-18T19:30:42.540Z,100558.63
2023-04-18T19:33:10.118Z,100593.81
2023-04-18T19:35:38.094Z,100606.22
2023-04-18T19:38:05.347Z,100597.66
2023-04-18T19:40:32.460Z,100595.84
2023-04-18T19:42:59.813Z,100583.09
2023-04-18T19:45:27.163Z,100593.69
2023-04-18T19:47:54.378Z,100591.38
2023-04-18T19:50:21.503Z,100594.50
2023-04-18T19:52:48.652Z,100582.75
2023-04-18T19:55:15.833Z,100577.81
2023-04-18T19:57:43.438Z,100589.72
2023-04-18T20:00:12.989Z,100588.72
2023-04-18T20:02:41.894Z,100592.88
2023-04-18T20:05:10.087Z,100558.97
2023-04-18T20:07:37.421Z,100596.16
2023-04-18T20:10:05.259Z,100584.59
2023-04-18T20:12:32.760Z,100584.41
2023-04-18T20:14:59.868Z,100573.84
2023-04-18T20:17:30.623Z,100597.97
2023-04-18T20:19:59.655Z,100584.41
2023-04-18T20:22:27.349Z,100558.13
2023-04-18T20:24:57.299Z,100566.56
2023-04-18T20:27:24.697Z,100578.94
2023-04-18T20:29:51.907Z,100571.81
2023-04-18T20:32:19.177Z,100540.22
2023-04-18T20:34:46.759Z,100548.66
2023-04-18T20:37:18.779Z,100557.59
2023-04-18T20:39:46.432Z,100546.50
2023-04-18T20:42:14.733Z,100550.66
2023-04-18T20:44:46.970Z,100564.22
2023-04-18T20:47:15.775Z,100541.53
2023-04-18T20:49:43.456Z,100529.13
2023-04-18T20:52:10.605Z,100539.25
2023-04-18T20:54:37.899Z,100522.34
2023-04-18T20:57:05.192Z,100524.66
2023-04-18T20:59:32.333Z,100499.13
2023-04-18T21:01:59.867Z,100519.88
2023-04-18T21:04:27.583Z,100512.31
2023-04-18T21:06:54.979Z,100519.25
2023-04-18T21:09:22.052Z,100515.28
2023-04-18T21:11:49.192Z,100532.81
2023-04-18T21:14:17.344Z,100531.94
2023-04-18T21:16:44.725Z,100529.84
2023-04-18T21:19:12.187Z,100538.59
2023-04-18T21:21:39.366Z,100517.47
2023-04-18T21:24:06.925Z,100532.00
2023-04-18T21:26:34.138Z,100525.03
2023-04-18T21:29:04.497Z,100526.38
2023-04-18T21:31:34.125Z,100522.72
2023-04-18T21:34:04.317Z,100493.50
2023-04-18T21:36:32.324Z,100498.47
2023-04-18T21:39:01.080Z,100487.50
2023-04-18T21:41:29.034Z,100485.88
2023-04-18T21:43:56.147Z,100485.69
2023-04-18T21:46:23.485Z,100489.81
2023-04-18T21:48:50.722Z,100490.00
2023-04-18T21:51:17.944Z,100497.41
2023-04-18T21:53:45.106Z,100512.94
2023-04-18T21:56:12.341Z,100497.44
2023-04-18T21:58:39.383Z,100502.53
2023-04-18T22:01:06.681Z,100504.38
2023-04-18T22:03:34.572Z,100504.53
2023-04-18T22:06:02.142Z,100489.00
2023-04-18T22:08:29.613Z,100520.78
2023-04-18T22:10:59.103Z,100541.38
2023-04-18T22:13:33.212Z,100531.97
2023-04-18T22:16:04.916Z,100545.63
2023-04-18T22:18:37.571Z,100533.13
2023-04-18T22:21:05.274Z,100536.38
2023-04-18T22:23:32.465Z,100522.28
2023-04-18T22:25:59.717Z,100535.34
2023-04-18T22:28:28.186Z,100544.59
2023-04-18T22:30:55.462Z,100530.84
2023-04-18T22:33:22.630Z,100533.31
2023-04-18T22:35:49.998Z,100539.00
2023-04-18T22:38:17.471Z,100531.97
2023-04-18T22:40:44.751Z,100521.75
2023-04-18T22:43:11.831Z,100535.16
2023-04-18T22:45:38.990Z,100543.81
2023-04-18T22:48:11.351Z,100550.34
2023-04-18T22:50:42.713Z,100547.38
2023-04-18T22:53:14.542Z,100540.94
2023-04-18T22:55:42.811Z,100551.75
2023-04-18T22:58:10.839Z,100536.97
2023-04-18T23:00:38.802Z,100533.34
2023-04-18T23:03:06.111Z,100525.44
2023-04-18T23:05:34.387Z,100520.94
2023-04-18T23:08:01.596Z,100508.97
2023-04-18T23:10:29.006Z,100509.78
2023-04-18T23:12:56.607Z,100510.34
2023-04-18T23:15:26.370Z,100526.47
2023-04-18T23:17:54.193Z,100518.81
2023-04-18T23:20:22.164Z,100513.53
2023-04-18T23:22:51.682Z,100510.19
2023-04-18T23:25:22.458Z,100511.69
2023-04-18T23:27:49.695Z,100529.69
2023-04-18T23:30:17.315Z,100517.16
2023-04-18T23:32:44.530Z,100507.97
2023-04-18T23:35:11.911Z,100501.66
2023-04-18T23:37:39.211Z,100509.78
2023-04-18T23:40:08.117Z,100504.91
2023-04-18T23:42:36.011Z,100500.91
2023-04-18T23:45:04.336Z,100503.41
2023-04-18T23:47:35.086Z,100485.47
2023-04-18T23:50:02.671Z,100493.97
2023-04-18T23:52:32.615Z,100450.81
2023-04-18T23:55:01.009Z,100481.84
2023-04-18T23:57:32.236Z,100482.25
2023-04-18T23:59:59.525Z,100480.50
